Terminal Aerodrome Forecast
Issued by NWS

Home | Current Version | Previous Version | Text Only | Print | Product List | Glossary On
Versions: 1 2 3 4 5 6 7 8 9 10 11 12 13 14 15 16 17 18 19 20 21 22 23 24 25 26
000
FTPA31 PHFO 302324
TAFHNY
TAF
PHNY 302324Z 0100/0124 34006KT P6SM -RA SCT018 BKN035 BKN070
     FM010400 VRB06KT P6SM VCSH SCT018 BKN035 BKN080
     FM012000 18009KT P6SM SCT015 BKN025=

USA.gov is the U.S. government's official web portal to all federal, state and local government web resources and services.